Latest Coastal Weather Observations for Geelong Racecourse

IDV60701

Issued at 7:22 pm EDT Thursday 21 October 2021 (issued every 10 minutes, with the page automatically refreshed every 10 minutes)

About coastal observations | Map of coastal stations | Coastal observations for VIC | Marine services | Other Formats
Station Details ID: 087184 Name: GEELONG RACECOURSE Lat: -38.17 Lon: 144.38 Height: 12.9 m
Data from the previous 72 hours. | See also: Recent months at Geelong Racecourse
Date/Time
EDT
Wind Sea
Height
m
Swell Vis
km
Cloud Weather Temp
°C
Press
MSL
hPa
Rain since
9am
mm
Dir  Spd
kts
Gust
kts
Height
m
Period
s
Dir
21/07:00pm NE 5 8 - - - - - - - 21.0 1012.6 0.0
21/06:30pm NE 5 8 - - - - - - - 21.2 1012.6 0.0
21/06:00pm ENE 5 7 - - - - - - - 21.8 1012.4 0.0
21/05:30pm NE 6 8 - - - - - - - 22.8 1012.2 0.0
21/05:00pm NNE 5 7 - - - - - - - 22.8 1012.3 0.0
21/04:30pm NNE 6 9 - - - - - - - 22.6 1012.3 0.0
21/04:00pm N 6 9 - - - - - - - 22.4 1012.4 0.0
21/03:30pm N 6 10 - - - - - - - 22.6 1012.5 0.0
21/03:00pm NNE 4 7 - - - - - - - 22.0 1012.7 0.0
21/02:30pm NNE 6 9 - - - - - - - 22.4 1013.0 0.0
21/02:00pm NE 8 11 - - - - - - - 22.5 1013.1 0.0
21/01:30pm NNE 9 14 - - - - - - - 22.4 1013.3 0.0
21/01:00pm NNE 7 12 - - - - - - - 21.4 1013.5 0.0
21/12:30pm NNE 6 9 - - - - - - - 21.6 1013.6 0.0
21/12:00pm NE 7 12 - - - - - - - 21.2 1013.9 0.0
21/11:30am NE 9 13 - - - - - - - 21.8 1014.1 0.0
21/11:00am NNE 7 10 - - - - - - - 21.3 1014.4 0.0
21/10:30am NNE 6 9 - - - - - - - 19.0 1014.5 0.0
21/10:00am NNE 8 12 - - - - - - - 18.9 1014.7 0.0
21/09:30am NNE 7 11 - - - - - - - 17.9 1014.6 0.0
21/09:00am NE 7 12 - - - - - - - 17.3 1014.3 0.0
21/08:30am NE 8 13 - - - - - - - 17.1 1014.2 0.0
21/08:00am NNE 9 12 - - - - - - - 16.7 1014.1 0.0
21/07:30am NNE 7 11 - - - - - - - 16.4 1014.1 0.0
21/07:00am NNE 7 12 - - - - - - - 15.5 1014.0 0.0
21/06:30am NNE 7 11 - - - - - - - 15.3 1013.7 0.0
21/06:00am NE 6 11 - - - - - - - 15.2 1013.3 0.0
21/05:30am NE 7 10 - - - - - - - 14.9 1013.3 0.0
21/05:00am NE 6 8 - - - - - - - 14.8 1013.4 0.0
21/04:30am NE 5 8 - - - - - - - 14.8 1013.4 0.0
21/04:00am ENE 6 9 - - - - - - - 14.8 1013.4 0.0
21/03:30am ENE 6 10 - - - - - - - 14.7 1013.6 0.0
21/03:00am ENE 5 8 - - - - - - - 14.8 1013.7 0.0
21/02:30am ENE 4 7 - - - - - - - 14.7 1013.8 0.0
21/02:00am ENE 6 9 - - - - - - - 14.7 1014.0 0.0
21/01:30am ENE 6 9 - - - - - - - 14.6 1014.6 0.0
21/01:00am ENE 5 8 - - - - - - - 14.6 1015.0 0.0
21/12:30am NE 1 4 - - - - - - - 14.0 1015.4 0.0
21/12:00am E 3 6 - - - - - - - 14.1 1015.2 0.0
 
Date/Time
EDT
Wind Sea
Height
m
Swell Vis
km
Cloud Weather Temp
°C
Press
MSL
hPa
Rain since
9am
mm
Dir  Spd
kts
Gust
kts
Height
m
Period
s
Dir
20/11:30pm E 3 5 - - - - - - - 14.2 1015.4 0.0
20/11:00pm ENE 2 2 - - - - - - - 14.7 1016.0 0.0
20/10:30pm ENE 4 6 - - - - - - - 15.2 1016.3 0.0
20/10:00pm NE 6 8 - - - - - - - 15.5 1016.4 0.0
20/09:30pm E 3 5 - - - - - - - 15.8 1016.4 0.0
20/09:00pm ESE 3 5 - - - - - - - 16.4 1016.3 0.0
20/08:30pm E 5 8 - - - - - - - 17.1 1015.9 0.0
20/08:00pm E 6 10 - - - - - - - 17.7 1015.6 0.0
20/07:30pm E 7 11 - - - - - - - 18.6 1015.5 0.0
20/07:00pm E 7 10 - - - - - - - 19.5 1015.5 0.0
20/06:30pm E 8 15 - - - - - - - 20.4 1015.6 0.0
20/06:00pm E 8 13 - - - - - - - 20.8 1015.4 0.0
20/05:30pm E 7 11 - - - - - - - 21.4 1015.4 0.0
20/05:00pm E 7 11 - - - - - - - 21.4 1015.7 0.0
20/04:30pm E 6 9 - - - - - - - 21.9 1016.0 0.0
20/04:00pm ENE 6 12 - - - - - - - 21.6 1016.4 0.0
20/03:30pm E 8 15 - - - - - - - 21.3 1016.7 0.0
20/03:00pm NE 8 11 - - - - - - - 20.6 1017.2 0.0
20/02:30pm ENE 9 11 - - - - - - - 19.8 1017.9 0.0
20/02:00pm NE 7 10 - - - - - - - 19.6 1018.5 0.0
20/01:30pm ENE 7 11 - - - - - - - 19.1 1018.9 0.0
20/01:00pm ENE 6 9 - - - - - - - 18.3 1019.4 0.0
20/12:30pm ENE 6 11 - - - - - - - 17.9 1019.9 0.0
20/12:00pm ENE 8 12 - - - - - - - 17.2 1020.3 0.0
20/11:30am ENE 9 15 - - - - - - - 16.0 1020.6 0.0
20/11:00am ENE 8 12 - - - - - - - 15.5 1021.0 0.0
20/10:30am ENE 10 17 - - - - - - - 15.3 1021.4 0.0
20/10:00am ENE 11 17 - - - - - - - 15.5 1021.6 0.0
20/09:30am ENE 9 15 - - - - - - - 15.0 1021.8 0.0
20/09:00am E 8 15 - - - - - - - 14.3 1021.7 0.2
20/08:30am E 8 14 - - - - - - - 13.4 1022.2 0.2
20/08:00am SE 3 6 - - - - - - - 12.6 1022.8 0.2
20/07:30am ESE 4 7 - - - - - - - 11.3 1022.6 0.2
20/07:00am SE 2 5 - - - - - - - 9.7 1022.8 0.2
20/06:30am SE 4 5 - - - - - - - 9.0 1022.6 0.2
20/06:00am S 1 2 - - - - - - - 8.1 1022.7 0.2
20/05:30am SSW 2 3 - - - - - - - 8.3 1022.7 0.2
20/05:00am SSW 3 4 - - - - - - - 8.3 1022.7 0.2
20/04:30am SSE 1 2 - - - - - - - 8.3 1022.2 0.2
20/04:00am SE 1 3 - - - - - - - 7.8 1022.6 0.2
20/03:30am CALM 0 1 - - - - - - - 8.5 1022.8 0.2
20/03:00am CALM 0 1 - - - - - - - 9.0 1023.5 0.2
20/02:30am CALM 0 0 - - - - - - - 9.7 1023.5 0.2
20/02:00am CALM 0 1 - - - - - - - 10.1 1024.0 0.2
20/01:30am SE 3 6 - - - - - - - 11.1 1024.3 0.2
20/01:00am SE 4 7 - - - - - - - 11.5 1024.5 0.2
20/12:30am ESE 7 13 - - - - - - - 11.8 1024.0 0.2
20/12:00am ESE 8 13 - - - - - - - 12.0 1024.0 0.2
 
Date/Time
EDT
Wind Sea
Height
m
Swell Vis
km
Cloud Weather Temp
°C
Press
MSL
hPa
Rain since
9am
mm
Dir  Spd
kts
Gust
kts
Height
m
Period
s
Dir
19/11:30pm ESE 7 13 - - - - - - - 12.1 1024.3 0.2
19/11:00pm ESE 5 9 - - - - - - - 12.0 1024.6 0.2
19/10:30pm SE 5 8 - - - - - - - 12.1 1025.1 0.2
19/10:00pm SE 6 10 - - - - - - - 12.3 1024.6 0.2
19/09:30pm ESE 4 7 - - - - - - - 12.3 1024.4 0.2
19/09:00pm SE 6 9 - - - - - - - 12.4 1023.8 0.2
19/08:30pm SSE 6 10 - - - - - - - 12.6 1023.9 0.2
19/08:00pm SSE 6 10 - - - - - - - 12.8 1023.7 0.2
19/07:30pm SSE 9 13 - - - - - - - 13.0 1023.9 0.2
19/07:00pm SSE 11 17 - - - - - - - 13.5 1023.5 0.2
19/06:30pm SSE 10 16 - - - - - - - 13.9 1023.4 0.2
19/06:00pm SSE 13 19 - - - - - - - 13.9 1022.9 0.2
19/05:30pm SSE 13 18 - - - - - - - 14.0 1023.0 0.2
19/05:00pm SSE 12 18 - - - - - - - 14.7 1023.3 0.2
19/04:30pm SSE 13 19 - - - - - - - 15.1 1024.1 0.2
19/04:00pm SSE 13 19 - - - - - - - 14.9 1023.8 0.2
19/03:30pm SSE 11 17 - - - - - - - 15.4 1023.2 0.2
19/03:00pm SE 12 17 - - - - - - Recent precip. 15.7 1023.2 0.2
19/02:30pm SE 12 18 - - - - - - - 15.9 1023.4 0.2
19/02:00pm S 13 18 - - - - - - - 15.6 1023.3 0.0
19/01:30pm SSE 14 19 - - - - - - - 15.4 1023.2 0.0
19/01:00pm SSE 9 13 - - - - - - - 15.7 1023.5 0.0
19/12:30pm S 10 15 - - - - - - - 14.7 1023.5 0.0
19/12:00pm SSW 12 18 - - - - - - - 13.8 1023.5 0.0
19/11:30am S 14 18 - - - - - - - 12.5 1023.6 0.0
19/11:00am S 11 17 - - - - - - - 13.0 1023.3 0.0
19/10:30am SSW 11 17 - - - - - - - 13.8 1023.2 0.0
19/10:00am SSW 10 15 - - - - - - - 13.2 1023.2 0.0
19/09:30am SSW 14 19 - - - - - - - 12.2 1023.0 0.0
19/09:00am SSW 11 16 - - - - - - - 12.4 1022.8 1.4
19/08:30am SSW 10 15 - - - - - - - 12.1 1022.6 1.4
19/08:00am S 8 11 - - - - - - - 10.9 1022.3 1.4
19/07:30am SSW 5 8 - - - - - - - 10.2 1021.7 1.4
19/07:00am SSW 5 7 - - - - - - - 10.5 1021.0 1.4
19/06:30am SW 5 9 - - - - - - - 9.8 1020.5 1.4
19/06:00am SW 5 8 - - - - - - Rain 9.2 1020.1 1.4
19/05:30am SW 4 5 - - - - - - - 8.6 1019.8 1.2
19/05:00am W 3 4 - - - - - - - 9.0 1019.6 1.2
19/04:30am W 3 4 - - - - - - - 8.3 1019.5 1.2
19/04:00am W 3 4 - - - - - - - 7.7 1019.3 1.2
19/03:30am WNW 3 4 - - - - - - - 8.4 1019.4 1.2
19/03:00am W 3 5 - - - - - - - 9.1 1019.5 1.2
19/02:30am WSW 4 6 - - - - - - - 8.8 1019.6 1.2
19/02:00am NW 3 4 - - - - - - - 7.8 1019.5 1.2
19/01:30am WNW 3 4 - - - - - - - 8.0 1019.4 1.2
19/01:00am WNW 3 4 - - - - - - - 7.8 1019.4 1.0
19/12:30am WNW 3 3 - - - - - - - 8.4 1019.3 1.0
19/12:00am WNW 3 4 - - - - - - - 8.6 1019.1 1.0
 
Date/Time
EDT
Wind Sea
Height
m
Swell Vis
km
Cloud Weather Temp
°C
Press
MSL
hPa
Rain since
9am
mm
Dir  Spd
kts
Gust
kts
Height
m
Period
s
Dir
18/11:30pm WNW 4 5 - - - - - - - 8.9 1018.9 1.0
18/11:00pm WNW 3 5 - - - - - - - 9.2 1018.9 1.0
18/10:30pm WNW 3 4 - - - - - - - 9.5 1018.7 1.0
18/10:00pm WSW 3 4 - - - - - - - 9.4 1018.6 1.0
18/09:30pm SW 5 7 - - - - - - - 10.0 1018.2 1.0
18/09:00pm SW 4 5 - - - - - - Recent precip. 10.7 1017.9 1.0
18/08:30pm SSW 6 15 - - - - - - - 11.1 1017.4 1.0
18/08:00pm SW 6 9 - - - - - - - 11.5 1016.9 0.4
18/07:30pm SSW 4 8 - - - - - - - 11.7 1016.3 0.4

Other formats

Comma delimited format used in spreadsheet applications
http://www.bom.gov.au/fwo/IDV60701/IDV60701.94857.axf

JavaScript Object Notation format (JSON) in row-major order
http://www.bom.gov.au/fwo/IDV60701/IDV60701.94857.json

Data quality

Most of these data are generated automatically and are frequently updated. Quality checks on data are not normally performed. It is possible for incorrect values to appear. Refer to information at About Latest Weather Observations and please check the disclaimer before using these data.